Terminal Aerodrome Forecast
Issued by NWS Jackson, MS

Home | Current Version | Previous Version | Text Only | Print | Product List | Glossary On
Versions: 1 2 3 4 5 6 7 8 9 10 11 12 13 14 15 16 17 18
000
FTUS44 KJAN 241149
TAFHBG
TAF
KHBG 241149Z 2412/2512 17003KT P6SM VCSH SCT050 BKN100
     FM241600 27005KT P6SM BKN025
     FM241800 27005KT P6SM VCTS BKN035CB
     FM250000 33005KT 4SM -TSRA OVC025CB
     FM250200 01003KT P6SM OVC050=

USA.gov is the U.S. government's official web portal to all federal, state and local government web resources and services.